Time;durP1;ratioP1;P1;durP2;ratioP2;P2;SDS_P1;SDS_P2;PMS_P1;PMS_P2;Temp;Humidity;BMP_temperature;BMP_pressure;BME280_temperature;BME280_humidity;BME280_pressure;Samples;Min_cycle;Max_cycle;Signal;HPM_P1;HPM_P2
2021/04/09 00:00:10;;;;;;;9.53;5.03;;;5.20;99.90;;;;;;5009537;28;20445;-47
2021/04/09 00:02:37;;;;;;;9.10;4.70;;;5.10;99.90;;;;;;5010074;28;20446;-47
2021/04/09 00:05:06;;;;;;;14.03;4.17;;;5.20;99.90;;;;;;5010349;28;20453;-52
2021/04/09 00:07:32;;;;;;;9.60;4.73;;;5.10;99.90;;;;;;5009802;28;20545;-49
2021/04/09 00:09:58;;;;;;;7.73;4.10;;;5.10;99.90;;;;;;5010033;28;20446;-49
2021/04/09 00:12:25;;;;;;;6.40;4.97;;;5.10;99.90;;;;;;5009740;28;20450;-49
2021/04/09 00:14:51;;;;;;;7.97;5.17;;;5.00;99.90;;;;;;5009235;28;20482;-50
2021/04/09 00:17:19;;;;;;;8.13;4.10;;;5.00;99.90;;;;;;5008983;28;20446;-48
2021/04/09 00:19:45;;;;;;;6.93;4.90;;;5.00;99.90;;;;;;5010348;28;20446;-47
2021/04/09 00:22:12;;;;;;;8.70;5.00;;;4.90;99.90;;;;;;5009454;28;20493;-47
2021/04/09 00:24:38;;;;;;;7.60;4.50;;;4.90;99.90;;;;;;5010418;28;20541;-48
2021/04/09 00:27:05;;;;;;;7.00;4.47;;;4.90;99.90;;;;;;5009832;28;20453;-50
2021/04/09 00:29:31;;;;;;;5.77;5.10;;;4.80;99.90;;;;;;5009924;28;20454;-48
2021/04/09 00:31:57;;;;;;;6.03;4.33;;;4.80;99.90;;;;;;5009730;28;20446;-47
2021/04/09 00:34:25;;;;;;;5.93;4.13;;;4.80;99.90;;;;;;5009924;28;20442;-52
2021/04/09 00:36:51;;;;;;;8.23;3.80;;;4.80;99.90;;;;;;5010717;28;20457;-51
2021/04/09 00:39:17;;;;;;;7.43;4.37;;;4.70;99.90;;;;;;5010090;28;20458;-47
2021/04/09 00:41:44;;;;;;;10.83;3.90;;;4.70;99.90;;;;;;5010492;28;20454;-48
2021/04/09 00:44:12;;;;;;;5.80;4.00;;;4.60;99.90;;;;;;5009832;28;20541;-46
2021/04/09 00:46:39;;;;;;;5.87;3.77;;;4.60;99.90;;;;;;5010853;28;20445;-48
2021/04/09 00:49:06;;;;;;;7.30;3.47;;;4.60;99.90;;;;;;5010118;28;20477;-47
2021/04/09 00:51:34;;;;;;;9.40;4.43;;;4.50;99.90;;;;;;5011388;28;20457;-46
2021/04/09 00:54:02;;;;;;;9.70;3.70;;;4.50;99.90;;;;;;5011098;28;20449;-48
2021/04/09 00:56:30;;;;;;;6.43;4.17;;;4.50;99.90;;;;;;5010989;28;20481;-50
2021/04/09 00:58:58;;;;;;;6.50;3.90;;;4.40;99.90;;;;;;5010706;28;20457;-47
2021/04/09 01:01:25;;;;;;;5.20;3.70;;;4.40;99.90;;;;;;5011417;28;20457;-48
2021/04/09 01:03:54;;;;;;;10.50;4.37;;;4.30;99.90;;;;;;5010570;28;20457;-51
2021/04/09 01:06:21;;;;;;;9.10;4.13;;;4.30;99.90;;;;;;5010979;28;20462;-48
2021/04/09 01:08:49;;;;;;;5.20;3.20;;;4.30;99.90;;;;;;5010582;28;20449;-48
2021/04/09 01:11:17;;;;;;;6.10;3.97;;;4.20;99.90;;;;;;5011191;28;20442;-50
2021/04/09 01:13:45;;;;;;;6.97;3.83;;;4.20;99.90;;;;;;5011946;28;20450;-47
2021/04/09 01:16:16;;;;;;;6.03;3.87;;;4.20;99.90;;;;;;5014681;28;20940;-44
2021/04/09 01:18:53;;;;;;;6.87;3.63;;;4.10;99.90;;;;;;5015671;28;20879;-49
2021/04/09 01:21:28;;;;;;;6.00;3.60;;;4.10;99.90;;;;;;5016077;28;20437;-47
2021/04/09 01:24:09;;;;;;;7.33;4.23;;;4.10;99.90;;;;;;5015910;28;20456;-48
2021/04/09 01:27:20;;;;;;;4.70;3.90;;;4.00;99.90;;;;;;5016299;28;20521;-47
2021/04/09 01:30:13;;;;;;;4.53;3.73;;;4.00;99.90;;;;;;5006605;28;20477;-46
2021/04/09 01:32:41;;;;;;;5.83;3.30;;;3.90;99.90;;;;;;5015485;28;20446;-49
2021/04/09 01:35:09;;;;;;;10.07;6.47;;;3.90;99.90;;;;;;5015562;28;20500;-46
2021/04/09 01:37:39;;;;;;;6.57;4.23;;;3.90;99.90;;;;;;5016020;28;20438;-46
2021/04/09 01:40:10;;;;;;;7.30;4.63;;;3.80;99.90;;;;;;5016302;28;20446;-46
2021/04/09 01:42:39;;;;;;;6.77;3.50;;;3.80;99.90;;;;;;5015983;28;20434;-47
2021/04/09 01:45:09;;;;;;;10.50;4.93;;;3.80;99.90;;;;;;5015166;28;20446;-46
2021/04/09 01:47:37;;;;;;;5.90;4.10;;;3.70;99.90;;;;;;5015706;28;20477;-46
2021/04/09 01:50:09;;;;;;;8.13;3.83;;;3.70;99.90;;;;;;5015868;28;20434;-47
2021/04/09 01:52:36;;;;;;;9.30;4.17;;;3.70;99.90;;;;;;5016075;28;20445;-47
2021/04/09 01:55:06;;;;;;;4.57;3.37;;;3.70;99.90;;;;;;5016084;28;20485;-52
2021/04/09 01:57:33;;;;;;;7.63;4.13;;;3.70;99.90;;;;;;5016402;28;20500;-46
2021/04/09 02:00:01;;;;;;;9.97;4.00;;;3.70;99.90;;;;;;5016259;28;20445;-50
2021/04/09 02:02:28;;;;;;;5.47;3.70;;;3.60;99.90;;;;;;5016159;28;20450;-50
2021/04/09 02:04:54;;;;;;;5.40;3.43;;;3.60;99.90;;;;;;5015965;28;20442;-51
2021/04/09 02:07:23;;;;;;;6.57;3.47;;;3.60;99.90;;;;;;5016089;28;20450;-49
2021/04/09 02:09:50;;;;;;;4.93;3.50;;;3.70;99.90;;;;;;5016364;28;20450;-47
2021/04/09 02:12:18;;;;;;;5.60;4.23;;;3.70;99.90;;;;;;5016505;28;20441;-49
2021/04/09 02:14:45;;;;;;;8.30;3.70;;;3.70;99.90;;;;;;5016161;28;20509;-48
2021/04/09 02:17:13;;;;;;;8.00;3.87;;;3.60;99.90;;;;;;5016147;28;20476;-47
2021/04/09 02:19:41;;;;;;;7.00;4.10;;;3.60;99.90;;;;;;5016410;28;20438;-51
2021/04/09 02:22:08;;;;;;;5.77;4.50;;;3.50;99.90;;;;;;5015768;28;20485;-48
2021/04/09 02:24:35;;;;;;;7.33;4.03;;;3.50;99.90;;;;;;5016212;28;20456;-46
2021/04/09 02:27:04;;;;;;;6.00;3.90;;;3.50;99.90;;;;;;5015831;28;20457;-51
2021/04/09 02:29:32;;;;;;;7.93;3.83;;;3.50;99.90;;;;;;5016326;28;20446;-46
2021/04/09 02:31:58;;;;;;;5.27;3.27;;;3.50;99.90;;;;;;5016963;28;20481;-46
2021/04/09 02:34:24;;;;;;;7.93;3.50;;;3.50;99.90;;;;;;5016730;28;20430;-47
2021/04/09 02:36:51;;;;;;;6.03;3.80;;;3.40;99.90;;;;;;5016864;28;20446;-44
2021/04/09 02:39:21;;;;;;;3.73;3.43;;;3.40;99.90;;;;;;5016754;28;20437;-46
2021/04/09 02:41:50;;;;;;;10.03;4.03;;;3.40;99.90;;;;;;5016147;28;20446;-50
2021/04/09 02:44:16;;;;;;;10.93;3.83;;;3.40;99.90;;;;;;5016337;28;20434;-47
2021/04/09 02:46:49;;;;;;;9.33;4.63;;;3.40;99.90;;;;;;5016197;28;20485;-45
2021/04/09 02:49:22;;;;;;;4.70;3.50;;;3.50;99.90;;;;;;5016712;28;20430;-47
2021/04/09 02:51:52;;;;;;;3.50;3.00;;;3.50;99.90;;;;;;5016052;28;20450;-48
2021/04/09 02:54:21;;;;;;;8.73;3.20;;;3.40;99.90;;;;;;5017058;28;20457;-49
2021/04/09 02:56:49;;;;;;;7.47;3.70;;;3.40;99.90;;;;;;5017080;28;20446;-46
2021/04/09 02:59:16;;;;;;;5.43;3.43;;;3.40;99.90;;;;;;5016729;28;20446;-46
2021/04/09 03:01:46;;;;;;;9.33;3.50;;;3.40;99.90;;;;;;5017127;28;20446;-47
2021/04/09 03:04:13;;;;;;;5.23;3.43;;;3.30;99.90;;;;;;5017217;28;20461;-46
2021/04/09 03:06:42;;;;;;;6.10;3.10;;;3.30;99.90;;;;;;5016444;28;20477;-45
2021/04/09 03:09:09;;;;;;;5.20;3.70;;;3.30;99.90;;;;;;5016043;28;20446;-47
2021/04/09 03:11:37;;;;;;;6.77;3.47;;;3.30;99.90;;;;;;5016514;28;20722;-49
2021/04/09 03:14:05;;;;;;;7.90;3.60;;;3.30;99.90;;;;;;5017400;28;20862;-51
2021/04/09 03:16:37;;;;;;;7.33;4.00;;;3.30;99.90;;;;;;5017042;28;20537;-49
2021/04/09 03:19:03;;;;;;;5.93;4.00;;;3.20;99.90;;;;;;5016759;28;20438;-49
2021/04/09 03:21:30;;;;;;;7.33;4.73;;;3.20;99.90;;;;;;5015743;28;20521;-49
2021/04/09 03:23:56;;;;;;;4.07;3.17;;;3.20;99.90;;;;;;5016184;28;20500;-46
2021/04/09 03:26:23;;;;;;;6.77;3.73;;;3.30;99.90;;;;;;5015826;28;20507;-50
2021/04/09 03:28:49;;;;;;;5.40;3.97;;;3.30;99.90;;;;;;5015799;28;20441;-47
2021/04/09 03:31:16;;;;;;;7.30;3.30;;;3.30;99.90;;;;;;5015922;28;20438;-47
2021/04/09 03:33:43;;;;;;;5.93;3.83;;;3.20;99.90;;;;;;5015281;28;20961;-49
2021/04/09 03:36:09;;;;;;;10.53;3.60;;;3.20;99.90;;;;;;5015703;28;20639;-50
2021/04/09 03:38:35;;;;;;;6.63;4.17;;;3.20;99.90;;;;;;5015505;28;20771;-52
2021/04/09 03:41:02;;;;;;;5.43;2.87;;;3.30;99.90;;;;;;5015228;28;20477;-46
2021/04/09 03:43:28;;;;;;;5.50;3.73;;;3.20;99.90;;;;;;5015499;28;20454;-51
2021/04/09 03:45:54;;;;;;;9.00;3.80;;;3.20;99.90;;;;;;5016234;28;20442;-50
2021/04/09 03:48:21;;;;;;;6.70;3.20;;;3.20;99.90;;;;;;5016164;28;20446;-46
2021/04/09 03:50:47;;;;;;;4.90;3.90;;;3.10;99.90;;;;;;5015742;28;20438;-48
2021/04/09 03:53:13;;;;;;;3.40;3.10;;;3.10;99.90;;;;;;5015586;28;20442;-45
2021/04/09 03:55:39;;;;;;;6.20;4.33;;;3.20;99.90;;;;;;5014752;28;20478;-46
2021/04/09 03:58:06;;;;;;;10.40;4.10;;;3.20;99.90;;;;;;5015775;28;20442;-47
2021/04/09 04:00:32;;;;;;;8.13;4.40;;;3.20;99.90;;;;;;5015286;28;20454;-49
2021/04/09 04:02:58;;;;;;;6.77;4.20;;;3.20;99.90;;;;;;5015808;28;20505;-47
2021/04/09 04:05:25;;;;;;;6.67;4.07;;;3.20;99.90;;;;;;5016271;28;20449;-47
2021/04/09 04:07:51;;;;;;;6.37;4.30;;;3.20;99.90;;;;;;5016226;28;20422;-48
2021/04/09 04:10:17;;;;;;;8.20;3.50;;;3.20;99.90;;;;;;5015368;28;20457;-50
2021/04/09 04:12:44;;;;;;;6.17;4.20;;;3.20;99.90;;;;;;5015860;28;20457;-50
2021/04/09 04:15:10;;;;;;;5.43;3.70;;;3.20;99.90;;;;;;5015184;28;20509;-52
2021/04/09 04:17:36;;;;;;;5.87;4.23;;;3.20;99.90;;;;;;5015623;28;20459;-49
2021/04/09 04:20:04;;;;;;;10.37;4.30;;;3.20;99.90;;;;;;5014968;28;20446;-51
2021/04/09 04:22:31;;;;;;;4.90;3.97;;;3.20;99.90;;;;;;5015216;28;20469;-48
2021/04/09 04:24:57;;;;;;;7.80;5.23;;;3.20;99.90;;;;;;5015367;28;20438;-50
2021/04/09 04:27:23;;;;;;;7.20;4.43;;;3.20;99.90;;;;;;5015598;28;20461;-45
2021/04/09 04:29:49;;;;;;;5.03;4.27;;;3.20;99.90;;;;;;5015529;28;20469;-45
2021/04/09 04:32:15;;;;;;;10.20;3.93;;;3.20;99.90;;;;;;5015972;28;20445;-48
2021/04/09 04:34:41;;;;;;;4.87;3.50;;;3.20;99.90;;;;;;5015196;28;20438;-47
2021/04/09 04:37:08;;;;;;;9.60;5.40;;;3.20;99.90;;;;;;5015993;28;20449;-47
2021/04/09 04:39:35;;;;;;;7.40;5.03;;;3.20;99.90;;;;;;5015136;28;20446;-47
2021/04/09 04:42:01;;;;;;;11.73;4.60;;;3.20;99.90;;;;;;5015009;28;20483;-49
2021/04/09 04:44:27;;;;;;;8.10;4.90;;;3.20;99.90;;;;;;5015084;28;20469;-51
2021/04/09 04:46:54;;;;;;;12.63;5.07;;;3.20;99.90;;;;;;5015192;28;20450;-49
2021/04/09 04:49:20;;;;;;;6.60;4.83;;;3.10;99.90;;;;;;5016484;28;20445;-51
2021/04/09 04:51:47;;;;;;;6.77;4.70;;;3.20;99.90;;;;;;5018879;28;20465;-47
2021/04/09 04:54:13;;;;;;;6.80;5.57;;;3.20;99.90;;;;;;5019025;28;20477;-46
2021/04/09 04:56:40;;;;;;;6.50;4.80;;;3.20;99.90;;;;;;5018836;28;20481;-49
2021/04/09 04:59:06;;;;;;;7.77;5.10;;;3.20;99.90;;;;;;5018681;28;20450;-48
2021/04/09 05:01:32;;;;;;;11.03;4.10;;;3.20;99.90;;;;;;5019097;28;20450;-47
2021/04/09 05:03:58;;;;;;;6.90;4.90;;;3.20;99.90;;;;;;5019429;28;20446;-51
2021/04/09 05:06:24;;;;;;;11.87;5.47;;;3.20;99.90;;;;;;5019251;28;20438;-50
2021/04/09 05:08:50;;;;;;;6.20;4.30;;;3.20;99.90;;;;;;5018812;28;20454;-45
2021/04/09 05:11:17;;;;;;;10.80;5.33;;;3.20;99.90;;;;;;5018225;28;20449;-50
2021/04/09 05:13:44;;;;;;;7.47;5.07;;;3.30;99.90;;;;;;5018374;28;20446;-47
2021/04/09 05:16:11;;;;;;;9.03;4.67;;;3.30;99.90;;;;;;5019053;28;20477;-48
2021/04/09 05:18:37;;;;;;;9.60;4.93;;;3.20;99.90;;;;;;5018433;28;20445;-46
2021/04/09 05:21:06;;;;;;;7.17;5.03;;;3.30;99.90;;;;;;5018528;28;20441;-47
2021/04/09 05:23:32;;;;;;;6.63;4.53;;;3.30;99.90;;;;;;4999397;28;20453;-50
2021/04/09 05:25:59;;;;;;;29.60;5.60;;;3.30;99.90;;;;;;4999520;28;20446;-51
2021/04/09 05:28:28;;;;;;;8.80;4.87;;;3.30;99.90;;;;;;4999346;28;20455;-46
2021/04/09 05:30:56;;;;;;;8.10;5.50;;;3.40;99.90;;;;;;4998898;28;20486;-45
2021/04/09 05:33:22;;;;;;;11.63;5.00;;;3.40;99.90;;;;;;4998640;28;20458;-51
2021/04/09 05:35:49;;;;;;;13.13;5.50;;;3.40;99.90;;;;;;4996102;28;20497;-47
2021/04/09 05:38:15;;;;;;;12.70;5.53;;;3.40;99.90;;;;;;4988846;28;20517;-47
2021/04/09 05:40:41;;;;;;;7.13;4.80;;;3.50;99.90;;;;;;4991792;28;20825;-48
2021/04/09 05:43:07;;;;;;;9.00;5.60;;;3.50;99.90;;;;;;4994491;28;20454;-47
2021/04/09 05:45:34;;;;;;;5.87;5.23;;;3.60;99.90;;;;;;4991535;28;20423;-46
2021/04/09 05:48:04;;;;;;;8.03;5.10;;;3.60;99.90;;;;;;4989617;28;20466;-46
2021/04/09 05:50:31;;;;;;;9.73;5.67;;;3.70;99.90;;;;;;4996797;28;20439;-49
2021/04/09 05:52:57;;;;;;;15.27;4.77;;;3.80;99.90;;;;;;4995508;28;20443;-47
2021/04/09 05:55:24;;;;;;;9.47;5.70;;;3.90;99.90;;;;;;4992802;28;20478;-51
2021/04/09 05:57:50;;;;;;;12.30;5.97;;;4.00;99.90;;;;;;4996578;28;20461;-46
2021/04/09 06:00:17;;;;;;;7.97;5.13;;;4.00;99.90;;;;;;4999454;28;20791;-47
2021/04/09 06:02:44;;;;;;;9.50;5.40;;;4.10;99.90;;;;;;5001861;28;20431;-48
2021/04/09 06:05:12;;;;;;;7.20;5.27;;;4.20;99.90;;;;;;5001931;28;20434;-48
2021/04/09 06:07:38;;;;;;;7.20;5.30;;;4.20;99.90;;;;;;5007280;28;20775;-46
2021/04/09 06:10:06;;;;;;;11.73;5.80;;;4.20;99.90;;;;;;5016645;28;20927;-50
2021/04/09 06:12:32;;;;;;;9.20;5.30;;;4.30;99.90;;;;;;5010990;28;20457;-47
2021/04/09 06:14:58;;;;;;;11.73;5.77;;;4.40;99.90;;;;;;5006419;28;20918;-45
2021/04/09 06:17:25;;;;;;;8.17;5.17;;;4.40;99.90;;;;;;5005032;28;20442;-50
2021/04/09 06:19:51;;;;;;;10.63;5.40;;;4.50;99.90;;;;;;5004802;28;20454;-47
2021/04/09 06:22:18;;;;;;;5.90;4.60;;;4.70;99.90;;;;;;4996525;28;20528;-47
2021/04/09 06:24:44;;;;;;;6.43;4.90;;;4.80;99.90;;;;;;5005873;28;20765;-47
2021/04/09 06:27:11;;;;;;;10.37;6.13;;;5.00;99.90;;;;;;5004779;28;20442;-54
2021/04/09 06:29:38;;;;;;;9.00;5.27;;;5.10;99.90;;;;;;5011448;28;20437;-53
2021/04/09 06:32:05;;;;;;;11.80;5.87;;;5.30;99.90;;;;;;5004008;28;20453;-54
2021/04/09 06:34:31;;;;;;;9.90;5.53;;;5.50;99.90;;;;;;5000007;28;20811;-54
2021/04/09 06:36:57;;;;;;;7.60;5.53;;;5.70;99.90;;;;;;4999470;28;20482;-54
2021/04/09 06:39:24;;;;;;;8.70;5.10;;;5.80;99.90;;;;;;4990870;28;20920;-54
2021/04/09 06:41:51;;;;;;;7.63;5.20;;;5.90;99.90;;;;;;4979986;28;20450;-54
2021/04/09 06:44:18;;;;;;;8.27;4.73;;;6.00;99.90;;;;;;4979492;28;20470;-54
2021/04/09 06:46:44;;;;;;;11.10;6.53;;;6.10;99.90;;;;;;4979682;28;20451;-51
2021/04/09 06:49:12;;;;;;;13.53;6.70;;;6.20;99.90;;;;;;4979259;28;20509;-52
2021/04/09 06:51:39;;;;;;;8.27;5.50;;;6.30;99.90;;;;;;4980321;28;20513;-53
2021/04/09 06:54:11;;;;;;;8.13;5.40;;;6.40;99.90;;;;;;4980539;28;20490;-52
2021/04/09 06:56:39;;;;;;;8.63;5.60;;;6.40;99.90;;;;;;4980254;28;20521;-52
2021/04/09 06:59:05;;;;;;;9.03;5.60;;;6.50;99.90;;;;;;4980437;28;20533;-54
2021/04/09 07:01:35;;;;;;;7.33;4.80;;;6.50;99.90;;;;;;4980564;28;20514;-56
2021/04/09 07:04:02;;;;;;;11.83;5.57;;;6.60;99.90;;;;;;4980572;28;20504;-54
2021/04/09 07:06:30;;;;;;;8.47;4.60;;;6.70;99.90;;;;;;4980610;28;20974;-54
2021/04/09 07:08:57;;;;;;;10.87;5.23;;;6.80;99.90;;;;;;4980409;28;20453;-56
2021/04/09 07:11:23;;;;;;;9.20;5.60;;;6.80;99.90;;;;;;4979523;28;20466;-52
2021/04/09 07:13:51;;;;;;;6.87;5.80;;;6.80;99.90;;;;;;4980136;28;20458;-50
2021/04/09 07:16:18;;;;;;;8.20;5.10;;;6.90;99.90;;;;;;4979567;28;20510;-56
2021/04/09 07:18:50;;;;;;;6.77;4.90;;;7.10;99.90;;;;;;4979864;28;20455;-53
2021/04/09 07:21:23;;;;;;;13.87;6.80;;;7.20;99.90;;;;;;4979271;28;20916;-51
2021/04/09 07:23:50;;;;;;;10.93;5.67;;;7.30;99.90;;;;;;4979097;28;20435;-49
2021/04/09 07:26:39;;;;;;;6.27;4.70;;;7.50;99.90;;;;;;4978926;28;20502;-55
2021/04/09 07:29:06;;;;;;;7.93;5.40;;;7.60;99.90;;;;;;4978809;28;20446;-53
2021/04/09 07:31:33;;;;;;;7.70;5.70;;;7.60;99.90;;;;;;4979222;28;20439;-54
2021/04/09 07:34:00;;;;;;;7.93;5.10;;;7.50;99.90;;;;;;4979246;28;20542;-50
2021/04/09 07:36:27;;;;;;;12.03;6.10;;;7.40;99.90;;;;;;4979627;28;20511;-50
2021/04/09 07:38:53;;;;;;;6.83;4.47;;;7.40;99.90;;;;;;4978996;28;20458;-51
2021/04/09 07:41:20;;;;;;;23.53;5.93;;;7.40;99.90;;;;;;4978700;28;20524;-51
2021/04/09 07:43:46;;;;;;;11.37;5.17;;;7.50;99.90;;;;;;4979222;28;20545;-51
2021/04/09 07:46:21;;;;;;;5.90;4.60;;;7.60;99.90;;;;;;4979307;28;20462;-51
2021/04/09 07:49:00;;;;;;;9.57;6.37;;;7.80;99.90;;;;;;4979318;28;20438;-50
2021/04/09 07:51:26;;;;;;;9.13;4.90;;;7.90;99.90;;;;;;4979597;28;20427;-52
2021/04/09 07:53:53;;;;;;;7.63;4.50;;;8.00;99.90;;;;;;4979181;28;20908;-52
2021/04/09 07:56:20;;;;;;;8.10;5.00;;;8.00;99.90;;;;;;4978886;28;20486;-56
2021/04/09 07:58:47;;;;;;;7.67;5.80;;;8.10;99.90;;;;;;4978615;28;20447;-54
2021/04/09 08:01:23;;;;;;;6.80;4.73;;;8.20;99.90;;;;;;4978562;28;20462;-54
2021/04/09 08:03:50;;;;;;;8.70;4.83;;;8.30;99.90;;;;;;4978854;28;20463;-54
2021/04/09 08:06:18;;;;;;;10.53;5.33;;;8.50;99.90;;;;;;4978128;28;20451;-55
2021/04/09 08:08:58;;;;;;;5.77;4.63;;;8.90;99.90;;;;;;4978377;28;20457;-56
2021/04/09 08:11:30;;;;;;;9.10;5.23;;;9.70;98.60;;;;;;4978002;28;20787;-55
2021/04/09 08:14:08;;;;;;;7.10;4.67;;;10.40;95.60;;;;;;4977587;28;20975;-55
2021/04/09 08:16:40;;;;;;;16.03;5.23;;;10.80;93.80;;;;;;4976922;28;20487;-52
2021/04/09 08:19:09;;;;;;;10.63;5.40;;;11.10;92.00;;;;;;4977081;28;20462;-54
2021/04/09 08:21:38;;;;;;;10.60;5.20;;;11.40;90.90;;;;;;4976964;28;20482;-56
2021/04/09 08:24:07;;;;;;;7.83;5.30;;;11.90;88.50;;;;;;4976637;28;20524;-55
2021/04/09 08:26:35;;;;;;;12.50;5.50;;;12.30;84.60;;;;;;4976461;28;20517;-53
2021/04/09 08:29:03;;;;;;;6.97;4.90;;;12.90;82.70;;;;;;4975847;28;20474;-54
2021/04/09 08:31:31;;;;;;;8.33;5.10;;;13.80;77.60;;;;;;4975758;28;20824;-56
2021/04/09 08:33:59;;;;;;;7.60;6.30;;;14.80;71.60;;;;;;4975873;28;20451;-54
2021/04/09 08:36:26;;;;;;;12.67;5.80;;;15.30;65.60;;;;;;4975428;28;20991;-54
2021/04/09 08:38:54;;;;;;;7.53;4.90;;;15.90;61.70;;;;;;4975610;28;20463;-54
2021/04/09 08:41:21;;;;;;;11.80;8.10;;;16.20;58.90;;;;;;4975440;28;20446;-50
2021/04/09 08:43:48;;;;;;;10.70;5.57;;;16.30;57.40;;;;;;4975325;28;20458;-54
2021/04/09 08:46:15;;;;;;;7.53;5.97;;;16.60;56.40;;;;;;4975677;28;20784;-52
2021/04/09 08:48:42;;;;;;;8.33;4.83;;;16.90;54.90;;;;;;4975217;28;20466;-58
2021/04/09 08:51:11;;;;;;;8.47;5.77;;;17.10;54.20;;;;;;4975448;28;20773;-54
2021/04/09 08:53:37;;;;;;;7.00;5.33;;;17.20;53.00;;;;;;4975431;28;20594;-52
2021/04/09 08:56:05;;;;;;;9.03;5.77;;;17.10;52.40;;;;;;4975422;28;20482;-54
2021/04/09 08:58:43;;;;;;;7.53;6.00;;;16.60;52.40;;;;;;4975619;28;20457;-55
2021/04/09 09:01:11;;;;;;;14.97;6.03;;;16.20;53.40;;;;;;4975285;28;20454;-55
2021/04/09 09:03:38;;;;;;;8.30;4.90;;;15.80;53.90;;;;;;4975784;28;20482;-54
2021/04/09 09:06:06;;;;;;;14.00;7.30;;;15.70;53.90;;;;;;4975758;28;20455;-53
2021/04/09 09:09:01;;;;;;;7.63;5.73;;;15.70;54.00;;;;;;4975549;28;20478;-51
2021/04/09 09:11:53;;;;;;;12.73;6.90;;;15.40;54.00;;;;;;4975769;28;20456;-55
2021/04/09 09:14:39;;;;;;;7.77;5.10;;;15.20;55.20;;;;;;4976109;28;20533;-54
2021/04/09 09:17:37;;;;;;;8.00;5.10;;;15.20;54.80;;;;;;4975586;28;20487;-53
2021/04/09 09:20:13;;;;;;;12.90;5.93;;;15.30;54.50;;;;;;4975880;28;20457;-55
2021/04/09 09:22:55;;;;;;;13.10;6.10;;;15.50;54.40;;;;;;4975372;28;20486;-53
2021/04/09 09:25:33;;;;;;;10.57;5.90;;;16.00;53.60;;;;;;4975275;28;20446;-52
2021/04/09 09:28:01;;;;;;;9.23;5.50;;;16.20;53.40;;;;;;4974829;28;20470;-55
2021/04/09 09:30:36;;;;;;;9.50;6.17;;;16.00;52.40;;;;;;4975102;28;20530;-55
2021/04/09 09:33:25;;;;;;;6.23;4.90;;;16.00;52.90;;;;;;4975125;28;20461;-53
2021/04/09 09:35:59;;;;;;;9.00;5.70;;;16.70;52.20;;;;;;4970270;28;20485;-53
2021/04/09 09:38:51;;;;;;;13.80;8.70;;;17.30;51.30;;;;;;4978292;28;20490;-54
2021/04/09 09:41:39;;;;;;;7.23;5.73;;;17.60;50.30;;;;;;4978175;28;20554;-54
2021/04/09 09:44:29;;;;;;;12.90;6.40;;;17.50;49.80;;;;;;4978608;28;20477;-53
2021/04/09 09:46:58;;;;;;;9.07;5.90;;;17.40;49.70;;;;;;4978398;28;20509;-52
2021/04/09 09:49:26;;;;;;;8.50;5.90;;;17.40;49.10;;;;;;4978116;28;21071;-51
2021/04/09 09:51:53;;;;;;;14.30;6.13;;;17.30;49.30;;;;;;4978155;28;20454;-55
2021/04/09 09:54:27;;;;;;;8.43;6.33;;;17.50;49.60;;;;;;4978143;28;20458;-54
2021/04/09 09:56:56;;;;;;;20.73;6.00;;;17.90;49.40;;;;;;4977936;28;20552;-54
2021/04/09 09:59:25;;;;;;;12.77;7.30;;;18.00;48.50;;;;;;4978176;28;20534;-56
2021/04/09 10:01:54;;;;;;;10.40;7.40;;;17.40;48.40;;;;;;4978253;28;20497;-55
2021/04/09 10:04:22;;;;;;;6.90;6.17;;;16.80;49.80;;;;;;4978411;28;20506;-53
2021/04/09 10:06:53;;;;;;;8.03;5.90;;;16.90;50.40;;;;;;4978159;28;20843;-56
2021/04/09 10:09:30;;;;;;;12.20;6.20;;;17.10;49.80;;;;;;4978232;28;20459;-55
2021/04/09 10:12:01;;;;;;;6.13;5.27;;;17.00;49.00;;;;;;4977759;28;20462;-55
2021/04/09 10:14:28;;;;;;;7.30;6.57;;;17.10;49.50;;;;;;4977817;28;20451;-55
2021/04/09 10:16:58;;;;;;;7.97;5.53;;;17.00;49.00;;;;;;4977947;28;20483;-54
2021/04/09 10:19:24;;;;;;;8.67;6.40;;;16.60;50.00;;;;;;4978124;28;20526;-55
2021/04/09 10:21:52;;;;;;;8.77;5.10;;;16.40;50.10;;;;;;4977612;28;20478;-54
2021/04/09 10:24:20;;;;;;;10.70;6.50;;;16.40;50.40;;;;;;4977887;28;20516;-53
2021/04/09 10:26:52;;;;;;;9.83;5.73;;;16.70;50.40;;;;;;4977814;28;20799;-56
2021/04/09 10:29:24;;;;;;;7.70;6.27;;;17.00;50.80;;;;;;4977472;28;20451;-51
2021/04/09 10:31:51;;;;;;;8.13;5.47;;;17.10;49.90;;;;;;4977679;28;20505;-49
2021/04/09 10:34:22;;;;;;;8.13;6.17;;;16.90;50.30;;;;;;4977280;28;20447;-54
2021/04/09 10:36:49;;;;;;;7.17;5.83;;;16.70;50.20;;;;;;4977495;28;20483;-53
2021/04/09 10:39:17;;;;;;;6.80;5.70;;;16.30;51.20;;;;;;4977899;28;20808;-52
2021/04/09 10:41:46;;;;;;;8.13;6.53;;;16.20;51.40;;;;;;4977528;28;20463;-56
2021/04/09 10:44:17;;;;;;;14.00;8.30;;;16.10;51.50;;;;;;4977044;28;20459;-54
2021/04/09 10:46:46;;;;;;;8.83;5.70;;;15.90;51.50;;;;;;4976517;28;20891;-53
2021/04/09 10:49:15;;;;;;;6.47;5.83;;;15.90;52.40;;;;;;4977172;28;20482;-56
2021/04/09 10:51:44;;;;;;;8.33;6.30;;;15.90;51.60;;;;;;4977445;28;20943;-54
2021/04/09 10:54:12;;;;;;;10.53;5.37;;;15.80;51.90;;;;;;4977127;28;20912;-54
2021/04/09 10:56:40;;;;;;;6.50;5.30;;;15.50;52.50;;;;;;4977112;28;20482;-56
2021/04/09 10:59:09;;;;;;;12.40;6.73;;;15.50;52.40;;;;;;4977095;28;20451;-53
2021/04/09 11:01:36;;;;;;;8.03;5.70;;;15.50;52.70;;;;;;4977183;28;20919;-52
2021/04/09 11:04:04;;;;;;;13.70;6.90;;;15.50;52.70;;;;;;4977298;28;20922;-55
2021/04/09 11:06:31;;;;;;;6.73;5.80;;;15.50;53.20;;;;;;4977045;28;20913;-53
2021/04/09 11:08:59;;;;;;;9.80;6.10;;;15.60;53.40;;;;;;4976661;28;20498;-55
2021/04/09 11:11:31;;;;;;;10.10;6.13;;;15.80;53.10;;;;;;4976803;28;20458;-51
2021/04/09 11:14:06;;;;;;;6.73;5.60;;;15.90;52.30;;;;;;4976900;28;20837;-54
2021/04/09 11:16:56;;;;;;;5.77;4.90;;;16.00;52.30;;;;;;4976492;28;20497;-56
2021/04/09 11:19:30;;;;;;;6.17;5.00;;;15.90;52.30;;;;;;4976390;28;20454;-55
2021/04/09 11:22:01;;;;;;;8.77;6.10;;;15.80;53.40;;;;;;4985990;23;20478;-52
2021/04/09 11:24:31;;;;;;;10.10;5.67;;;15.60;52.60;;;;;;5026202;23;20536;-51
2021/04/09 11:27:00;;;;;;;7.10;5.57;;;15.50;53.50;;;;;;5015474;28;20886;-55
2021/04/09 11:29:29;;;;;;;7.20;6.50;;;15.40;53.20;;;;;;5015647;28;20484;-55
2021/04/09 11:32:10;;;;;;;7.07;5.63;;;15.40;53.70;;;;;;5015300;28;20476;-55
2021/04/09 11:34:38;;;;;;;12.10;6.10;;;15.40;53.90;;;;;;5015608;28;20492;-55
2021/04/09 11:37:05;;;;;;;11.13;6.07;;;15.50;54.10;;;;;;5015227;28;20480;-53
2021/04/09 11:39:32;;;;;;;6.80;5.63;;;15.50;53.70;;;;;;5015530;28;20467;-51
2021/04/09 11:42:00;;;;;;;8.17;5.40;;;15.30;54.30;;;;;;5015273;28;20448;-53
2021/04/09 11:44:33;;;;;;;8.77;6.03;;;15.30;54.10;;;;;;5015316;28;20479;-55
2021/04/09 11:47:19;;;;;;;19.60;5.50;;;15.30;54.90;;;;;;5015435;28;20445;-56
2021/04/09 11:49:48;;;;;;;6.90;5.93;;;15.20;54.90;;;;;;5015291;28;20456;-51
2021/04/09 11:52:15;;;;;;;6.77;4.00;;;15.30;55.10;;;;;;5015586;28;20520;-55
2021/04/09 11:54:43;;;;;;;6.00;4.27;;;15.30;55.70;;;;;;5016267;28;20485;-57
2021/04/09 11:57:34;;;;;;;5.10;3.87;;;15.10;54.90;;;;;;5016042;28;20496;-52
2021/04/09 12:00:01;;;;;;;6.40;4.80;;;14.90;55.40;;;;;;5011912;28;20476;-51
2021/04/09 12:02:28;;;;;;;16.90;6.93;;;14.80;56.10;;;;;;5015402;28;20433;-50
2021/04/09 12:04:56;;;;;;;5.73;4.50;;;14.80;56.40;;;;;;5015343;28;20449;-57
2021/04/09 12:07:25;;;;;;;6.13;4.30;;;14.90;56.30;;;;;;5015160;28;20457;-52
2021/04/09 12:09:56;;;;;;;6.60;4.50;;;15.00;55.90;;;;;;5015146;28;20449;-53
2021/04/09 12:12:24;;;;;;;8.33;5.10;;;15.00;55.70;;;;;;5015252;28;20441;-59
2021/04/09 12:14:52;;;;;;;12.43;6.00;;;14.90;56.00;;;;;;5015226;28;20926;-52
2021/04/09 12:17:23;;;;;;;6.60;5.10;;;14.70;56.10;;;;;;5014681;28;20520;-56
2021/04/09 12:19:51;;;;;;;6.30;4.67;;;14.50;56.30;;;;;;5014712;28;20445;-55
2021/04/09 12:22:19;;;;;;;9.47;5.10;;;14.60;56.10;;;;;;5015558;28;20506;-53
2021/04/09 12:24:46;;;;;;;8.53;5.17;;;14.70;56.50;;;;;;5014612;28;20488;-56
2021/04/09 12:27:15;;;;;;;6.47;4.70;;;14.90;56.40;;;;;;5014528;28;20449;-55
2021/04/09 12:29:44;;;;;;;7.50;5.80;;;15.10;56.40;;;;;;5014884;28;20519;-55
2021/04/09 12:32:11;;;;;;;7.20;5.40;;;15.20;56.00;;;;;;5014528;28;20468;-57
2021/04/09 12:34:38;;;;;;;8.67;4.47;;;15.10;54.80;;;;;;5014844;28;20479;-52
2021/04/09 12:37:04;;;;;;;7.97;5.67;;;15.00;54.50;;;;;;5014367;28;20980;-51
2021/04/09 12:39:32;;;;;;;11.27;6.27;;;14.90;54.90;;;;;;5014299;28;20496;-54
2021/04/09 12:41:58;;;;;;;6.80;6.10;;;14.90;55.40;;;;;;5014711;28;20449;-55
2021/04/09 12:44:25;;;;;;;9.03;5.67;;;14.80;55.50;;;;;;5014714;28;20492;-56
2021/04/09 12:46:52;;;;;;;8.90;6.43;;;14.80;55.50;;;;;;5014306;28;20437;-51
2021/04/09 12:49:20;;;;;;;9.70;5.40;;;14.80;54.90;;;;;;5014651;28;20453;-52
2021/04/09 12:51:46;;;;;;;12.13;7.10;;;14.70;55.20;;;;;;5014750;28;20908;-55
2021/04/09 12:54:17;;;;;;;10.23;6.30;;;14.70;55.90;;;;;;5014333;28;20457;-54
2021/04/09 12:56:45;;;;;;;7.80;6.63;;;14.70;56.60;;;;;;5014383;28;20481;-54
2021/04/09 12:59:11;;;;;;;6.33;4.60;;;14.70;56.00;;;;;;5009209;28;20480;-54